sensor_id;sensor_type;location;lat;lon;timestamp;temperature;humidity
27413;DHT22;14871;52.702;5.230;2024-03-23T00:55:33;9.80;99.90
27413;DHT22;14871;52.702;5.230;2024-03-23T00:57:58;9.90;99.90
27413;DHT22;14871;52.702;5.230;2024-03-23T01:00:24;9.90;99.90
27413;DHT22;14871;52.702;5.230;2024-03-23T01:02:50;10.10;99.90
27413;DHT22;14871;52.702;5.230;2024-03-23T01:05:15;10.10;99.90
27413;DHT22;14871;52.702;5.230;2024-03-23T01:07:41;10.00;99.90
27413;DHT22;14871;52.702;5.230;2024-03-23T01:10:06;10.00;99.90
27413;DHT22;14871;52.702;5.230;2024-03-23T01:12:32;10.00;99.90
27413;DHT22;14871;52.702;5.230;2024-03-23T01:14:58;10.00;99.90
27413;DHT22;14871;52.702;5.230;2024-03-23T01:17:23;9.90;99.90
27413;DHT22;14871;52.702;5.230;2024-03-23T01:19:49;9.90;99.90
27413;DHT22;14871;52.702;5.230;2024-03-23T01:22:14;9.90;99.90
27413;DHT22;14871;52.702;5.230;2024-03-23T01:24:40;9.90;99.90
27413;DHT22;14871;52.702;5.230;2024-03-23T01:27:06;9.90;99.90
27413;DHT22;14871;52.702;5.230;2024-03-23T01:29:31;9.80;99.90
27413;DHT22;14871;52.702;5.230;2024-03-23T01:31:57;9.80;99.90
27413;DHT22;14871;52.702;5.230;2024-03-23T01:34:22;9.80;99.90
27413;DHT22;14871;52.702;5.230;2024-03-23T01:36:50;9.80;99.90
27413;DHT22;14871;52.702;5.230;2024-03-23T01:39:16;9.80;99.90
27413;DHT22;14871;52.702;5.230;2024-03-23T01:41:42;9.70;99.90
27413;DHT22;14871;52.702;5.230;2024-03-23T01:44:08;9.70;99.90
27413;DHT22;14871;52.702;5.230;2024-03-23T01:46:35;9.70;99.90
27413;DHT22;14871;52.702;5.230;2024-03-23T01:49:02;9.60;99.90
27413;DHT22;14871;52.702;5.230;2024-03-23T01:51:27;9.60;99.90
27413;DHT22;14871;52.702;5.230;2024-03-23T01:53:54;9.60;99.90
27413;DHT22;14871;52.702;5.230;2024-03-23T01:56:20;9.60;99.90
27413;DHT22;14871;52.702;5.230;2024-03-23T01:58:46;9.60;99.90
27413;DHT22;14871;52.702;5.230;2024-03-23T02:01:11;9.40;99.90
27413;DHT22;14871;52.702;5.230;2024-03-23T02:03:37;9.40;99.90
27413;DHT22;14871;52.702;5.230;2024-03-23T02:06:03;9.50;99.90
27413;DHT22;14871;52.702;5.230;2024-03-23T02:08:29;9.40;99.90
27413;DHT22;14871;52.702;5.230;2024-03-23T02:10:56;9.20;99.90
27413;DHT22;14871;52.702;5.230;2024-03-23T02:13:21;9.20;99.90
27413;DHT22;14871;52.702;5.230;2024-03-23T02:15:47;9.20;99.90
27413;DHT22;14871;52.702;5.230;2024-03-23T02:18:13;9.20;99.90
27413;DHT22;14871;52.702;5.230;2024-03-23T02:20:39;9.20;99.90
27413;DHT22;14871;52.702;5.230;2024-03-23T02:23:05;9.10;99.90
27413;DHT22;14871;52.702;5.230;2024-03-23T02:25:33;9.30;99.90
27413;DHT22;14871;52.702;5.230;2024-03-23T02:27:59;9.20;99.90
27413;DHT22;14871;52.702;5.230;2024-03-23T02:30:26;9.20;99.90
27413;DHT22;14871;52.702;5.230;2024-03-23T02:32:52;9.20;99.90
27413;DHT22;14871;52.702;5.230;2024-03-23T02:35:17;9.20;99.90
27413;DHT22;14871;52.702;5.230;2024-03-23T02:37:43;9.30;99.90
27413;DHT22;14871;52.702;5.230;2024-03-23T02:40:08;9.20;99.90
27413;DHT22;14871;52.702;5.230;2024-03-23T02:42:34;9.10;99.90
27413;DHT22;14871;52.702;5.230;2024-03-23T02:45:00;9.10;99.90
27413;DHT22;14871;52.702;5.230;2024-03-23T02:47:25;9.10;99.90
27413;DHT22;14871;52.702;5.230;2024-03-23T02:49:51;9.00;99.90
27413;DHT22;14871;52.702;5.230;2024-03-23T02:52:16;8.90;99.90
27413;DHT22;14871;52.702;5.230;2024-03-23T02:54:42;8.90;99.90
27413;DHT22;14871;52.702;5.230;2024-03-23T02:57:10;9.00;99.90
27413;DHT22;14871;52.702;5.230;2024-03-23T02:59:36;8.90;99.90
27413;DHT22;14871;52.702;5.230;2024-03-23T03:02:02;9.00;99.90
27413;DHT22;14871;52.702;5.230;2024-03-23T03:04:30;9.00;99.90
27413;DHT22;14871;52.702;5.230;2024-03-23T03:06:55;9.00;99.90
27413;DHT22;14871;52.702;5.230;2024-03-23T03:09:21;9.00;99.90
27413;DHT22;14871;52.702;5.230;2024-03-23T03:11:47;9.00;99.90
27413;DHT22;14871;52.702;5.230;2024-03-23T03:14:12;8.90;99.90
27413;DHT22;14871;52.702;5.230;2024-03-23T03:16:38;8.80;99.90
27413;DHT22;14871;52.702;5.230;2024-03-23T03:19:04;8.90;99.90
27413;DHT22;14871;52.702;5.230;2024-03-23T03:21:29;8.90;99.90
27413;DHT22;14871;52.702;5.230;2024-03-23T03:23:56;9.00;99.90
27413;DHT22;14871;52.702;5.230;2024-03-23T03:26:22;9.00;99.90
27413;DHT22;14871;52.702;5.230;2024-03-23T03:28:48;8.80;99.90
27413;DHT22;14871;52.702;5.230;2024-03-23T03:31:17;8.70;99.90
27413;DHT22;14871;52.702;5.230;2024-03-23T03:33:44;8.70;99.90
27413;DHT22;14871;52.702;5.230;2024-03-23T03:36:10;8.70;99.90
27413;DHT22;14871;52.702;5.230;2024-03-23T03:38:35;8.80;99.90
27413;DHT22;14871;52.702;5.230;2024-03-23T03:41:04;8.80;99.90
27413;DHT22;14871;52.702;5.230;2024-03-23T03:43:31;8.80;99.90
27413;DHT22;14871;52.702;5.230;2024-03-23T03:45:58;8.90;99.90
27413;DHT22;14871;52.702;5.230;2024-03-23T03:48:24;9.00;99.90
27413;DHT22;14871;52.702;5.230;2024-03-23T03:50:50;9.00;99.90
27413;DHT22;14871;52.702;5.230;2024-03-23T03:53:16;8.80;99.90
27413;DHT22;14871;52.702;5.230;2024-03-23T03:55:41;8.90;99.90
27413;DHT22;14871;52.702;5.230;2024-03-23T03:58:07;9.00;99.90
27413;DHT22;14871;52.702;5.230;2024-03-23T04:00:32;9.00;99.90
27413;DHT22;14871;52.702;5.230;2024-03-23T04:02:58;9.00;99.90
27413;DHT22;14871;52.702;5.230;2024-03-23T04:05:24;8.90;99.90
27413;DHT22;14871;52.702;5.230;2024-03-23T04:07:50;8.90;99.90
27413;DHT22;14871;52.702;5.230;2024-03-23T04:10:15;8.90;99.90
27413;DHT22;14871;52.702;5.230;2024-03-23T04:12:42;8.90;99.90
27413;DHT22;14871;52.702;5.230;2024-03-23T04:15:08;8.90;99.90
27413;DHT22;14871;52.702;5.230;2024-03-23T04:17:34;8.90;99.90
27413;DHT22;14871;52.702;5.230;2024-03-23T04:20:00;8.90;99.90
27413;DHT22;14871;52.702;5.230;2024-03-23T04:22:27;8.90;99.90
27413;DHT22;14871;52.702;5.230;2024-03-23T04:24:56;8.90;99.90
27413;DHT22;14871;52.702;5.230;2024-03-23T04:27:23;8.80;99.90
27413;DHT22;14871;52.702;5.230;2024-03-23T04:29:52;8.80;99.90
27413;DHT22;14871;52.702;5.230;2024-03-23T04:32:21;8.80;99.90
27413;DHT22;14871;52.702;5.230;2024-03-23T04:34:47;8.70;99.90
27413;DHT22;14871;52.702;5.230;2024-03-23T04:37:13;8.60;99.90
27413;DHT22;14871;52.702;5.230;2024-03-23T04:39:39;8.60;99.90
27413;DHT22;14871;52.702;5.230;2024-03-23T04:42:05;8.50;99.90
27413;DHT22;14871;52.702;5.230;2024-03-23T04:44:31;8.70;99.90
27413;DHT22;14871;52.702;5.230;2024-03-23T04:47:00;8.50;99.90
27413;DHT22;14871;52.702;5.230;2024-03-23T04:49:26;8.50;99.90
27413;DHT22;14871;52.702;5.230;2024-03-23T04:51:52;8.50;99.90
27413;DHT22;14871;52.702;5.230;2024-03-23T04:54:18;8.60;99.90
27413;DHT22;14871;52.702;5.230;2024-03-23T04:56:43;8.50;99.90
27413;DHT22;14871;52.702;5.230;2024-03-23T04:59:09;8.50;99.90
27413;DHT22;14871;52.702;5.230;2024-03-23T05:01:34;8.50;99.90
27413;DHT22;14871;52.702;5.230;2024-03-23T05:04:01;8.60;99.90
27413;DHT22;14871;52.702;5.230;2024-03-23T05:06:27;8.60;99.90
27413;DHT22;14871;52.702;5.230;2024-03-23T05:08:52;8.50;99.90
27413;DHT22;14871;52.702;5.230;2024-03-23T05:11:18;8.50;99.90
27413;DHT22;14871;52.702;5.230;2024-03-23T05:13:44;8.50;99.90
27413;DHT22;14871;52.702;5.230;2024-03-23T05:16:09;8.50;99.90
27413;DHT22;14871;52.702;5.230;2024-03-23T05:18:35;8.50;99.90
27413;DHT22;14871;52.702;5.230;2024-03-23T05:21:01;8.40;99.90
27413;DHT22;14871;52.702;5.230;2024-03-23T05:23:28;8.40;99.90
27413;DHT22;14871;52.702;5.230;2024-03-23T05:25:54;8.50;99.90
27413;DHT22;14871;52.702;5.230;2024-03-23T05:28:21;8.50;99.90
27413;DHT22;14871;52.702;5.230;2024-03-23T05:30:56;8.60;99.90
27413;DHT22;14871;52.702;5.230;2024-03-23T05:33:24;8.50;99.90
27413;DHT22;14871;52.702;5.230;2024-03-23T05:35:57;8.50;99.90
27413;DHT22;14871;52.702;5.230;2024-03-23T05:38:23;8.70;99.90
27413;DHT22;14871;52.702;5.230;2024-03-23T05:40:56;8.60;99.90
27413;DHT22;14871;52.702;5.230;2024-03-23T05:43:22;8.80;99.90
27413;DHT22;14871;52.702;5.230;2024-03-23T05:45:58;8.60;99.90
27413;DHT22;14871;52.702;5.230;2024-03-23T05:48:25;8.70;99.90
27413;DHT22;14871;52.702;5.230;2024-03-23T05:50:51;8.70;99.90
27413;DHT22;14871;52.702;5.230;2024-03-23T05:53:18;8.80;99.90
27413;DHT22;14871;52.702;5.230;2024-03-23T05:55:46;8.80;99.90
27413;DHT22;14871;52.702;5.230;2024-03-23T05:58:14;8.80;99.90
27413;DHT22;14871;52.702;5.230;2024-03-23T06:00:40;8.80;99.90
27413;DHT22;14871;52.702;5.230;2024-03-23T06:03:06;8.70;99.90
27413;DHT22;14871;52.702;5.230;2024-03-23T06:05:31;8.60;99.90
27413;DHT22;14871;52.702;5.230;2024-03-23T06:07:57;8.50;99.90
27413;DHT22;14871;52.702;5.230;2024-03-23T06:10:23;8.50;99.90
27413;DHT22;14871;52.702;5.230;2024-03-23T06:12:48;8.60;99.90
27413;DHT22;14871;52.702;5.230;2024-03-23T06:15:15;8.50;99.90
27413;DHT22;14871;52.702;5.230;2024-03-23T06:17:41;8.40;99.90
27413;DHT22;14871;52.702;5.230;2024-03-23T06:20:07;8.40;99.90
27413;DHT22;14871;52.702;5.230;2024-03-23T06:22:33;8.30;99.90
27413;DHT22;14871;52.702;5.230;2024-03-23T06:24:59;8.30;99.90
27413;DHT22;14871;52.702;5.230;2024-03-23T06:27:24;8.30;99.90
27413;DHT22;14871;52.702;5.230;2024-03-23T06:29:50;8.20;99.90
27413;DHT22;14871;52.702;5.230;2024-03-23T06:32:15;8.40;99.90
27413;DHT22;14871;52.702;5.230;2024-03-23T06:34:42;8.50;99.90
27413;DHT22;14871;52.702;5.230;2024-03-23T06:37:07;8.50;99.90
27413;DHT22;14871;52.702;5.230;2024-03-23T06:39:38;8.60;99.90
27413;DHT22;14871;52.702;5.230;2024-03-23T06:42:04;8.50;99.90
27413;DHT22;14871;52.702;5.230;2024-03-23T06:44:30;8.60;99.90
27413;DHT22;14871;52.702;5.230;2024-03-23T06:46:56;8.60;99.90
27413;DHT22;14871;52.702;5.230;2024-03-23T06:49:23;8.60;99.90
27413;DHT22;14871;52.702;5.230;2024-03-23T06:51:49;8.60;99.90
27413;DHT22;14871;52.702;5.230;2024-03-23T06:54:15;8.60;99.90
27413;DHT22;14871;52.702;5.230;2024-03-23T06:56:40;8.70;99.90
27413;DHT22;14871;52.702;5.230;2024-03-23T06:59:06;8.80;99.90
27413;DHT22;14871;52.702;5.230;2024-03-23T07:01:32;8.90;99.90
27413;DHT22;14871;52.702;5.230;2024-03-23T07:03:58;8.90;99.90
27413;DHT22;14871;52.702;5.230;2024-03-23T07:06:23;8.90;99.90
27413;DHT22;14871;52.702;5.230;2024-03-23T07:08:49;9.00;99.90
27413;DHT22;14871;52.702;5.230;2024-03-23T07:11:21;9.00;99.90
27413;DHT22;14871;52.702;5.230;2024-03-23T07:13:49;8.70;99.90
27413;DHT22;14871;52.702;5.230;2024-03-23T07:16:16;8.70;99.90
27413;DHT22;14871;52.702;5.230;2024-03-23T07:18:41;8.50;99.90
27413;DHT22;14871;52.702;5.230;2024-03-23T07:21:07;8.60;99.90
27413;DHT22;14871;52.702;5.230;2024-03-23T07:23:33;8.60;99.90
27413;DHT22;14871;52.702;5.230;2024-03-23T07:26:00;8.70;99.90
27413;DHT22;14871;52.702;5.230;2024-03-23T07:28:26;8.70;99.90
27413;DHT22;14871;52.702;5.230;2024-03-23T07:33:27;9.00;99.90
27413;DHT22;14871;52.702;5.230;2024-03-23T07:35:53;9.00;99.90
27413;DHT22;14871;52.702;5.230;2024-03-23T07:38:19;9.10;99.90
27413;DHT22;14871;52.702;5.230;2024-03-23T07:40:44;9.00;99.90
27413;DHT22;14871;52.702;5.230;2024-03-23T07:43:10;8.90;99.90
27413;DHT22;14871;52.702;5.230;2024-03-23T07:45:36;8.90;99.90
27413;DHT22;14871;52.702;5.230;2024-03-23T07:48:03;8.90;99.90
27413;DHT22;14871;52.702;5.230;2024-03-23T07:50:29;9.00;99.90
27413;DHT22;14871;52.702;5.230;2024-03-23T07:52:55;8.80;99.90
27413;DHT22;14871;52.702;5.230;2024-03-23T07:55:20;8.80;99.90
27413;DHT22;14871;52.702;5.230;2024-03-23T07:57:46;9.00;99.90
27413;DHT22;14871;52.702;5.230;2024-03-23T08:00:12;9.30;99.90
27413;DHT22;14871;52.702;5.230;2024-03-23T08:02:38;9.60;99.90
27413;DHT22;14871;52.702;5.230;2024-03-23T08:05:04;9.70;99.90
27413;DHT22;14871;52.702;5.230;2024-03-23T08:07:30;9.90;99.90
27413;DHT22;14871;52.702;5.230;2024-03-23T08:09:55;10.00;99.90
27413;DHT22;14871;52.702;5.230;2024-03-23T08:12:21;9.90;99.90
27413;DHT22;14871;52.702;5.230;2024-03-23T08:14:47;9.80;99.90
27413;DHT22;14871;52.702;5.230;2024-03-23T08:17:12;9.70;99.90
27413;DHT22;14871;52.702;5.230;2024-03-23T08:19:38;9.50;99.90
27413;DHT22;14871;52.702;5.230;2024-03-23T08:22:03;9.30;99.90
27413;DHT22;14871;52.702;5.230;2024-03-23T08:24:29;9.10;99.90
27413;DHT22;14871;52.702;5.230;2024-03-23T08:26:55;9.30;99.90
27413;DHT22;14871;52.702;5.230;2024-03-23T08:29:21;9.60;99.90
27413;DHT22;14871;52.702;5.230;2024-03-23T08:31:46;10.20;99.90
27413;DHT22;14871;52.702;5.230;2024-03-23T08:34:12;10.40;99.90
27413;DHT22;14871;52.702;5.230;2024-03-23T08:36:38;10.20;99.90
27413;DHT22;14871;52.702;5.230;2024-03-23T08:39:03;9.40;99.90
27413;DHT22;14871;52.702;5.230;2024-03-23T08:41:29;9.00;99.90
27413;DHT22;14871;52.702;5.230;2024-03-23T08:43:55;8.80;99.90
27413;DHT22;14871;52.702;5.230;2024-03-23T08:46:21;8.80;99.90
27413;DHT22;14871;52.702;5.230;2024-03-23T08:48:46;8.80;99.90
27413;DHT22;14871;52.702;5.230;2024-03-23T08:51:15;8.70;99.90
27413;DHT22;14871;52.702;5.230;2024-03-23T08:53:41;8.90;99.90
27413;DHT22;14871;52.702;5.230;2024-03-23T08:56:09;9.40;99.90
27413;DHT22;14871;52.702;5.230;2024-03-23T08:58:36;9.60;99.90
27413;DHT22;14871;52.702;5.230;2024-03-23T09:01:10;9.70;99.90
27413;DHT22;14871;52.702;5.230;2024-03-23T09:03:36;9.70;99.90
27413;DHT22;14871;52.702;5.230;2024-03-23T09:06:10;9.60;99.90
27413;DHT22;14871;52.702;5.230;2024-03-23T09:08:36;9.80;99.90
27413;DHT22;14871;52.702;5.230;2024-03-23T09:11:06;10.00;99.90
27413;DHT22;14871;52.702;5.230;2024-03-23T09:13:35;10.60;99.90
27413;DHT22;14871;52.702;5.230;2024-03-23T09:16:02;10.80;99.90
27413;DHT22;14871;52.702;5.230;2024-03-23T09:18:30;10.50;99.90
27413;DHT22;14871;52.702;5.230;2024-03-23T09:20:57;10.40;99.90
27413;DHT22;14871;52.702;5.230;2024-03-23T09:23:22;10.70;99.90
27413;DHT22;14871;52.702;5.230;2024-03-23T09:25:48;10.60;99.90
27413;DHT22;14871;52.702;5.230;2024-03-23T09:28:13;10.90;99.90
27413;DHT22;14871;52.702;5.230;2024-03-23T09:30:39;10.70;99.90
27413;DHT22;14871;52.702;5.230;2024-03-23T09:33:08;10.90;99.90
27413;DHT22;14871;52.702;5.230;2024-03-23T09:35:42;11.30;99.90
27413;DHT22;14871;52.702;5.230;2024-03-23T09:38:08;11.70;99.90
27413;DHT22;14871;52.702;5.230;2024-03-23T09:40:35;12.00;99.90
27413;DHT22;14871;52.702;5.230;2024-03-23T09:43:06;12.30;99.90
27413;DHT22;14871;52.702;5.230;2024-03-23T09:45:34;12.10;99.90
27413;DHT22;14871;52.702;5.230;2024-03-23T09:48:01;11.80;99.90
27413;DHT22;14871;52.702;5.230;2024-03-23T09:50:27;11.80;99.90
27413;DHT22;14871;52.702;5.230;2024-03-23T09:52:52;12.00;99.90
27413;DHT22;14871;52.702;5.230;2024-03-23T09:55:18;12.50;99.90
27413;DHT22;14871;52.702;5.230;2024-03-23T09:57:44;12.50;99.90
27413;DHT22;14871;52.702;5.230;2024-03-23T10:00:10;12.10;99.90
27413;DHT22;14871;52.702;5.230;2024-03-23T10:02:37;11.80;99.90
27413;DHT22;14871;52.702;5.230;2024-03-23T10:05:03;11.90;99.90
27413;DHT22;14871;52.702;5.230;2024-03-23T10:07:29;12.10;99.90
27413;DHT22;14871;52.702;5.230;2024-03-23T10:09:55;12.50;99.90
27413;DHT22;14871;52.702;5.230;2024-03-23T10:12:21;12.90;99.90
27413;DHT22;14871;52.702;5.230;2024-03-23T10:14:47;13.10;99.90
27413;DHT22;14871;52.702;5.230;2024-03-23T10:17:20;13.20;99.90
27413;DHT22;14871;52.702;5.230;2024-03-23T10:19:50;13.50;99.90
27413;DHT22;14871;52.702;5.230;2024-03-23T10:22:20;13.70;99.90
27413;DHT22;14871;52.702;5.230;2024-03-23T10:24:46;13.60;99.90
27413;DHT22;14871;52.702;5.230;2024-03-23T10:27:16;13.30;99.90
27413;DHT22;14871;52.702;5.230;2024-03-23T10:29:43;12.80;99.90
27413;DHT22;14871;52.702;5.230;2024-03-23T10:32:13;12.60;99.90
27413;DHT22;14871;52.702;5.230;2024-03-23T10:34:40;12.30;99.90
27413;DHT22;14871;52.702;5.230;2024-03-23T10:37:06;12.10;99.90
27413;DHT22;14871;52.702;5.230;2024-03-23T10:39:39;12.20;99.90
27413;DHT22;14871;52.702;5.230;2024-03-23T10:42:09;11.90;99.90
27413;DHT22;14871;52.702;5.230;2024-03-23T10:44:38;12.00;99.90
27413;DHT22;14871;52.702;5.230;2024-03-23T10:47:04;12.50;99.90
27413;DHT22;14871;52.702;5.230;2024-03-23T10:49:32;13.00;99.90
27413;DHT22;14871;52.702;5.230;2024-03-23T10:51:59;12.50;99.90
27413;DHT22;14871;52.702;5.230;2024-03-23T10:54:26;12.30;99.90
27413;DHT22;14871;52.702;5.230;2024-03-23T10:57:16;12.30;99.90
27413;DHT22;14871;52.702;5.230;2024-03-23T10:59:43;12.00;99.90
27413;DHT22;14871;52.702;5.230;2024-03-23T11:02:21;12.40;99.90
27413;DHT22;14871;52.702;5.230;2024-03-23T11:04:47;12.60;99.90
27413;DHT22;14871;52.702;5.230;2024-03-23T11:07:32;12.90;99.90
27413;DHT22;14871;52.702;5.230;2024-03-23T11:09:58;12.90;99.90
27413;DHT22;14871;52.702;5.230;2024-03-23T11:15:16;12.90;99.90
27413;DHT22;14871;52.702;5.230;2024-03-23T11:17:42;12.60;99.90
27413;DHT22;14871;52.702;5.230;2024-03-23T11:20:32;12.40;99.90
27413;DHT22;14871;52.702;5.230;2024-03-23T11:22:57;11.90;99.90
27413;DHT22;14871;52.702;5.230;2024-03-23T11:25:24;11.70;99.90
27413;DHT22;14871;52.702;5.230;2024-03-23T11:27:57;11.80;99.90
27413;DHT22;14871;52.702;5.230;2024-03-23T11:30:24;12.20;99.90
27413;DHT22;14871;52.702;5.230;2024-03-23T11:32:51;12.10;99.90
27413;DHT22;14871;52.702;5.230;2024-03-23T11:35:34;12.30;99.90
27413;DHT22;14871;52.702;5.230;2024-03-23T11:38:10;12.70;99.90
27413;DHT22;14871;52.702;5.230;2024-03-23T11:40:38;13.30;99.90
27413;DHT22;14871;52.702;5.230;2024-03-23T11:43:05;13.00;99.90
27413;DHT22;14871;52.702;5.230;2024-03-23T11:45:49;12.50;99.90
27413;DHT22;14871;52.702;5.230;2024-03-23T11:48:21;12.30;99.90
27413;DHT22;14871;52.702;5.230;2024-03-23T11:50:49;11.90;99.90
27413;DHT22;14871;52.702;5.230;2024-03-23T11:55:43;11.40;99.90
27413;DHT22;14871;52.702;5.230;2024-03-23T11:58:10;11.60;99.90
27413;DHT22;14871;52.702;5.230;2024-03-23T12:00:36;11.50;99.90
27413;DHT22;14871;52.702;5.230;2024-03-23T12:03:02;11.40;99.90
27413;DHT22;14871;52.702;5.230;2024-03-23T12:05:29;11.30;99.90
27413;DHT22;14871;52.702;5.230;2024-03-23T12:07:55;11.30;99.90
27413;DHT22;14871;52.702;5.230;2024-03-23T12:10:21;11.40;99.90
27413;DHT22;14871;52.702;5.230;2024-03-23T12:13:00;11.20;99.90
27413;DHT22;14871;52.702;5.230;2024-03-23T12:15:27;10.90;99.90
27413;DHT22;14871;52.702;5.230;2024-03-23T12:18:07;11.10;99.90
27413;DHT22;14871;52.702;5.230;2024-03-23T12:20:32;11.40;99.90
27413;DHT22;14871;52.702;5.230;2024-03-23T12:23:08;11.30;99.90
27413;DHT22;14871;52.702;5.230;2024-03-23T12:25:35;11.30;99.90
27413;DHT22;14871;52.702;5.230;2024-03-23T12:28:02;11.10;99.90
27413;DHT22;14871;52.702;5.230;2024-03-23T12:30:28;11.30;99.90
27413;DHT22;14871;52.702;5.230;2024-03-23T12:32:53;11.40;99.90
27413;DHT22;14871;52.702;5.230;2024-03-23T12:35:20;11.70;99.90
27413;DHT22;14871;52.702;5.230;2024-03-23T12:37:45;12.20;99.90
27413;DHT22;14871;52.702;5.230;2024-03-23T12:40:11;12.60;99.90
27413;DHT22;14871;52.702;5.230;2024-03-23T12:42:36;13.00;99.90
27413;DHT22;14871;52.702;5.230;2024-03-23T12:45:03;13.10;99.90
27413;DHT22;14871;52.702;5.230;2024-03-23T12:47:30;13.00;99.90
27413;DHT22;14871;52.702;5.230;2024-03-23T12:49:56;12.60;99.90
27413;DHT22;14871;52.702;5.230;2024-03-23T12:52:21;12.30;99.90
27413;DHT22;14871;52.702;5.230;2024-03-23T12:54:49;12.10;99.90
27413;DHT22;14871;52.702;5.230;2024-03-23T12:57:15;12.00;99.90
27413;DHT22;14871;52.702;5.230;2024-03-23T12:59:40;11.70;99.90
27413;DHT22;14871;52.702;5.230;2024-03-23T13:02:06;11.50;99.90
27413;DHT22;14871;52.702;5.230;2024-03-23T13:04:32;11.60;99.90
27413;DHT22;14871;52.702;5.230;2024-03-23T13:06:58;11.50;99.90
27413;DHT22;14871;52.702;5.230;2024-03-23T13:09:23;11.20;99.90
27413;DHT22;14871;52.702;5.230;2024-03-23T13:11:49;10.80;99.90
27413;DHT22;14871;52.702;5.230;2024-03-23T13:14:14;10.70;99.90
27413;DHT22;14871;52.702;5.230;2024-03-23T13:16:42;10.80;99.90
27413;DHT22;14871;52.702;5.230;2024-03-23T13:19:07;11.10;99.90
27413;DHT22;14871;52.702;5.230;2024-03-23T13:21:33;11.30;99.90
27413;DHT22;14871;52.702;5.230;2024-03-23T13:23:58;11.90;99.90
27413;DHT22;14871;52.702;5.230;2024-03-23T13:26:24;12.10;99.90
27413;DHT22;14871;52.702;5.230;2024-03-23T13:28:50;12.50;99.90
27413;DHT22;14871;52.702;5.230;2024-03-23T13:31:15;12.70;99.90
27413;DHT22;14871;52.702;5.230;2024-03-23T13:33:41;12.60;99.90
27413;DHT22;14871;52.702;5.230;2024-03-23T13:36:09;12.50;99.90
27413;DHT22;14871;52.702;5.230;2024-03-23T13:38:35;12.20;99.90
27413;DHT22;14871;52.702;5.230;2024-03-23T13:41:00;12.40;99.90
27413;DHT22;14871;52.702;5.230;2024-03-23T13:43:27;12.50;99.90
27413;DHT22;14871;52.702;5.230;2024-03-23T13:45:55;12.30;99.90
27413;DHT22;14871;52.702;5.230;2024-03-23T13:48:25;12.40;99.90
27413;DHT22;14871;52.702;5.230;2024-03-23T13:51:01;12.30;99.90
27413;DHT22;14871;52.702;5.230;2024-03-23T13:53:27;12.30;99.90
27413;DHT22;14871;52.702;5.230;2024-03-23T13:55:53;12.20;99.90
27413;DHT22;14871;52.702;5.230;2024-03-23T13:58:19;12.30;99.90
27413;DHT22;14871;52.702;5.230;2024-03-23T14:00:45;12.00;99.90
27413;DHT22;14871;52.702;5.230;2024-03-23T14:03:12;12.60;99.90
27413;DHT22;14871;52.702;5.230;2024-03-23T14:05:38;12.60;99.90
27413;DHT22;14871;52.702;5.230;2024-03-23T14:08:07;12.70;99.90
27413;DHT22;14871;52.702;5.230;2024-03-23T14:10:34;12.90;99.90
27413;DHT22;14871;52.702;5.230;2024-03-23T14:13:01;13.20;99.90
27413;DHT22;14871;52.702;5.230;2024-03-23T14:15:27;13.50;99.90
27413;DHT22;14871;52.702;5.230;2024-03-23T14:17:52;13.20;99.90
27413;DHT22;14871;52.702;5.230;2024-03-23T14:20:20;13.50;99.90
27413;DHT22;14871;52.702;5.230;2024-03-23T14:22:45;13.50;99.90
27413;DHT22;14871;52.702;5.230;2024-03-23T14:25:11;13.30;99.90
27413;DHT22;14871;52.702;5.230;2024-03-23T14:27:37;13.20;99.90
27413;DHT22;14871;52.702;5.230;2024-03-23T14:30:03;12.90;99.90
27413;DHT22;14871;52.702;5.230;2024-03-23T14:32:30;12.60;99.90
27413;DHT22;14871;52.702;5.230;2024-03-23T14:35:02;12.40;99.90
27413;DHT22;14871;52.702;5.230;2024-03-23T14:37:27;12.60;99.90
27413;DHT22;14871;52.702;5.230;2024-03-23T14:39:58;12.70;99.90
27413;DHT22;14871;52.702;5.230;2024-03-23T14:42:24;12.70;99.90
27413;DHT22;14871;52.702;5.230;2024-03-23T14:44:50;12.70;99.90
27413;DHT22;14871;52.702;5.230;2024-03-23T14:47:17;12.30;99.90
27413;DHT22;14871;52.702;5.230;2024-03-23T14:49:46;12.50;99.90
27413;DHT22;14871;52.702;5.230;2024-03-23T14:52:19;12.50;99.90
27413;DHT22;14871;52.702;5.230;2024-03-23T14:54:45;12.40;99.90
27413;DHT22;14871;52.702;5.230;2024-03-23T14:57:12;12.10;99.90
27413;DHT22;14871;52.702;5.230;2024-03-23T14:59:38;12.10;99.90
27413;DHT22;14871;52.702;5.230;2024-03-23T15:02:04;11.70;99.90
27413;DHT22;14871;52.702;5.230;2024-03-23T15:04:30;11.60;99.90
27413;DHT22;14871;52.702;5.230;2024-03-23T15:06:55;11.60;99.90
27413;DHT22;14871;52.702;5.230;2024-03-23T15:09:21;11.80;99.90
27413;DHT22;14871;52.702;5.230;2024-03-23T15:11:46;11.70;99.90
27413;DHT22;14871;52.702;5.230;2024-03-23T15:14:12;11.80;99.90
27413;DHT22;14871;52.702;5.230;2024-03-23T15:16:37;12.30;99.90
27413;DHT22;14871;52.702;5.230;2024-03-23T15:19:03;12.20;99.90
27413;DHT22;14871;52.702;5.230;2024-03-23T15:21:31;12.40;99.90
27413;DHT22;14871;52.702;5.230;2024-03-23T15:23:57;12.70;99.90
27413;DHT22;14871;52.702;5.230;2024-03-23T15:26:23;12.60;99.90
27413;DHT22;14871;52.702;5.230;2024-03-23T15:28:49;12.70;99.90
27413;DHT22;14871;52.702;5.230;2024-03-23T15:31:23;12.60;99.90
27413;DHT22;14871;52.702;5.230;2024-03-23T15:33:49;12.30;99.90
27413;DHT22;14871;52.702;5.230;2024-03-23T15:36:15;12.20;99.90
27413;DHT22;14871;52.702;5.230;2024-03-23T15:38:40;12.10;99.90
27413;DHT22;14871;52.702;5.230;2024-03-23T15:41:06;12.00;99.90
27413;DHT22;14871;52.702;5.230;2024-03-23T15:43:33;11.80;99.90
27413;DHT22;14871;52.702;5.230;2024-03-23T15:45:59;11.80;99.90
27413;DHT22;14871;52.702;5.230;2024-03-23T15:48:26;11.90;99.90
27413;DHT22;14871;52.702;5.230;2024-03-23T15:50:56;11.80;99.90
27413;DHT22;14871;52.702;5.230;2024-03-23T15:53:23;11.30;99.90
27413;DHT22;14871;52.702;5.230;2024-03-23T15:55:56;10.80;99.90
27413;DHT22;14871;52.702;5.230;2024-03-23T15:58:22;10.40;99.90
27413;DHT22;14871;52.702;5.230;2024-03-23T16:01:01;10.20;99.90
27413;DHT22;14871;52.702;5.230;2024-03-23T16:03:27;9.90;99.90
27413;DHT22;14871;52.702;5.230;2024-03-23T16:08:19;9.70;99.90
27413;DHT22;14871;52.702;5.230;2024-03-23T16:10:45;9.90;99.90
27413;DHT22;14871;52.702;5.230;2024-03-23T16:13:10;10.10;99.90
27413;DHT22;14871;52.702;5.230;2024-03-23T16:15:36;10.30;99.90
27413;DHT22;14871;52.702;5.230;2024-03-23T16:18:02;10.50;99.90
27413;DHT22;14871;52.702;5.230;2024-03-23T16:20:27;10.80;99.90
27413;DHT22;14871;52.702;5.230;2024-03-23T16:22:53;11.00;99.90
27413;DHT22;14871;52.702;5.230;2024-03-23T16:25:18;11.00;99.90
27413;DHT22;14871;52.702;5.230;2024-03-23T16:27:44;11.00;99.90
27413;DHT22;14871;52.702;5.230;2024-03-23T16:30:11;11.20;99.90
27413;DHT22;14871;52.702;5.230;2024-03-23T16:32:36;11.00;99.90
27413;DHT22;14871;52.702;5.230;2024-03-23T16:35:04;11.00;99.90
27413;DHT22;14871;52.702;5.230;2024-03-23T16:37:30;11.10;99.90
27413;DHT22;14871;52.702;5.230;2024-03-23T16:39:56;11.20;99.90